Time;durP1;ratioP1;P1;durP2;ratioP2;P2;SDS_P1;SDS_P2;PMS_P1;PMS_P2;Temp;Humidity;BMP_temperature;BMP_pressure;BME280_temperature;BME280_humidity;BME280_pressure;Samples;Min_cycle;Max_cycle;Signal;HPM_P1;HPM_P2
2022/06/12 00:02:06;;;;;;;7.00;5.00;;;16.00;99.90;;;;;;4950620;29;20206;-79
2022/06/12 00:04:32;;;;;;;7.47;5.67;;;16.00;99.90;;;;;;4949034;28;20225;-78
2022/06/12 00:06:59;;;;;;;7.83;5.67;;;16.00;99.90;;;;;;4933443;29;20259;-78
2022/06/12 00:09:26;;;;;;;6.73;5.30;;;16.00;99.90;;;;;;4930995;29;20201;-79
2022/06/12 00:11:54;;;;;;;5.93;5.10;;;15.90;99.90;;;;;;4942281;29;20211;-79
2022/06/12 00:14:22;;;;;;;6.67;5.27;;;15.90;99.90;;;;;;4945691;29;20594;-78
2022/06/12 00:16:52;;;;;;;7.23;5.90;;;15.90;99.90;;;;;;4951105;29;20932;-79
2022/06/12 00:19:19;;;;;;;6.33;5.10;;;15.90;99.90;;;;;;4945785;29;20209;-80
2022/06/12 00:21:46;;;;;;;6.90;5.77;;;15.80;99.90;;;;;;4945974;29;20200;-80
2022/06/12 00:24:16;;;;;;;6.43;5.17;;;15.80;99.90;;;;;;4949743;29;20233;-78
2022/06/12 00:26:46;;;;;;;7.00;5.20;;;15.80;99.90;;;;;;4939744;29;20209;-78
2022/06/12 00:29:17;;;;;;;6.53;4.93;;;15.80;99.90;;;;;;4944875;29;20210;-79
2022/06/12 00:31:48;;;;;;;5.40;4.90;;;15.80;99.90;;;;;;4954082;29;20202;-78
2022/06/12 00:34:17;;;;;;;5.67;5.03;;;15.80;99.90;;;;;;4946452;28;20256;-78
2022/06/12 00:36:45;;;;;;;6.27;4.83;;;15.80;99.90;;;;;;4929189;29;20284;-79
2022/06/12 00:39:12;;;;;;;8.83;5.30;;;15.80;99.90;;;;;;4945602;29;20553;-79
2022/06/12 00:41:41;;;;;;;7.47;5.70;;;15.70;99.90;;;;;;4946341;29;20270;-78
2022/06/12 00:44:09;;;;;;;6.13;4.93;;;15.70;99.90;;;;;;4937651;29;20643;-78
2022/06/12 00:46:47;;;;;;;6.83;4.97;;;15.70;99.90;;;;;;4937974;29;20340;-80
2022/06/12 00:49:18;;;;;;;7.00;5.37;;;15.70;99.90;;;;;;4946307;29;20222;-78
2022/06/12 00:51:47;;;;;;;7.37;5.43;;;15.70;99.90;;;;;;4932232;29;20203;-80
2022/06/12 00:54:14;;;;;;;7.50;5.17;;;15.70;99.90;;;;;;4928381;29;20233;-79
2022/06/12 00:56:47;;;;;;;4.97;4.43;;;15.70;99.90;;;;;;4932386;29;20760;-78
2022/06/12 00:59:26;;;;;;;6.40;5.10;;;15.70;99.90;;;;;;4929128;29;20220;-80
2022/06/12 01:01:55;;;;;;;5.37;4.80;;;15.60;99.90;;;;;;4944055;29;20183;-79
2022/06/12 01:07:13;;;;;;;5.83;4.90;;;15.70;99.90;;;;;;4950387;29;20675;-79
2022/06/12 01:09:43;;;;;;;8.33;5.30;;;15.70;99.90;;;;;;4952434;29;20201;-81
2022/06/12 01:12:14;;;;;;;6.53;4.80;;;15.60;99.90;;;;;;4955426;29;20272;-78
2022/06/12 01:14:44;;;;;;;7.73;4.80;;;15.60;99.90;;;;;;4934771;29;20235;-79
2022/06/12 01:17:13;;;;;;;5.47;4.63;;;15.60;99.90;;;;;;4931901;29;20281;-79
2022/06/12 01:19:43;;;;;;;5.60;4.83;;;15.60;99.90;;;;;;4936271;29;20225;-80
2022/06/12 01:22:50;;;;;;;6.03;4.60;;;15.60;99.90;;;;;;4953371;29;20197;-81
2022/06/12 01:25:46;;;;;;;4.87;4.37;;;15.60;99.90;;;;;;4932625;29;20225;-79
2022/06/12 01:28:41;;;;;;;5.13;4.63;;;15.50;99.90;;;;;;4921514;29;20209;-79
2022/06/12 01:31:25;;;;;;;5.63;4.50;;;15.50;99.90;;;;;;4948896;29;20562;-80
2022/06/12 01:34:01;;;;;;;6.00;4.37;;;15.60;99.90;;;;;;4953051;28;20281;-78
2022/06/12 01:36:35;;;;;;;6.30;4.73;;;15.50;99.90;;;;;;4957081;29;20200;-79
2022/06/12 01:39:12;;;;;;;5.67;4.50;;;15.50;99.90;;;;;;4954267;29;20571;-78
2022/06/12 01:41:49;;;;;;;7.00;5.27;;;15.50;99.90;;;;;;4952597;29;20211;-78
2022/06/12 01:44:24;;;;;;;5.63;4.60;;;15.40;99.90;;;;;;4951946;28;20284;-79
2022/06/12 01:46:57;;;;;;;5.90;4.50;;;15.40;99.90;;;;;;4955111;29;20577;-79
2022/06/12 01:49:31;;;;;;;5.67;4.60;;;15.30;99.90;;;;;;4938190;29;20198;-79
2022/06/12 01:52:04;;;;;;;5.13;4.57;;;15.30;99.90;;;;;;4955312;29;20209;-81
2022/06/12 01:54:36;;;;;;;5.13;4.63;;;15.20;99.90;;;;;;4937411;29;20599;-79
2022/06/12 01:57:07;;;;;;;5.00;4.50;;;15.20;99.90;;;;;;4953065;29;20205;-78
2022/06/12 01:59:42;;;;;;;5.63;4.77;;;15.20;99.90;;;;;;4940313;29;20221;-79
2022/06/12 02:02:16;;;;;;;5.93;4.67;;;15.10;99.90;;;;;;4945721;29;20251;-78
2022/06/12 02:04:49;;;;;;;4.87;4.47;;;15.10;99.90;;;;;;4952491;29;20291;-79
2022/06/12 02:07:23;;;;;;;5.00;4.50;;;15.00;99.90;;;;;;4948165;29;20206;-80
2022/06/12 02:09:55;;;;;;;5.77;5.13;;;15.00;99.90;;;;;;4956054;29;20202;-79
2022/06/12 02:15:14;;;;;;;6.57;5.40;;;14.90;99.90;;;;;;4926247;29;20227;-80
2022/06/12 02:17:46;;;;;;;6.07;5.30;;;14.80;99.90;;;;;;4948453;29;20264;-80
2022/06/12 02:20:15;;;;;;;6.00;5.40;;;14.80;99.90;;;;;;4953576;28;20222;-80
2022/06/12 02:22:44;;;;;;;5.63;5.00;;;14.70;99.90;;;;;;4935544;29;20209;-80
2022/06/12 02:25:16;;;;;;;6.20;5.17;;;14.70;99.90;;;;;;4934839;28;20325;-80
2022/06/12 02:27:47;;;;;;;7.83;5.60;;;14.70;99.90;;;;;;4952261;29;20206;-80
2022/06/12 02:30:20;;;;;;;6.13;5.53;;;14.70;99.90;;;;;;4943064;29;20204;-80
2022/06/12 02:32:50;;;;;;;5.23;4.73;;;14.60;99.90;;;;;;4947679;29;20196;-80
2022/06/12 02:35:21;;;;;;;5.47;4.97;;;14.50;99.90;;;;;;4930528;29;20259;-80
2022/06/12 02:37:52;;;;;;;6.70;4.80;;;14.50;99.90;;;;;;4947919;29;20673;-81
2022/06/12 02:40:23;;;;;;;7.07;5.03;;;14.50;99.90;;;;;;4940065;29;20219;-80
2022/06/12 02:42:52;;;;;;;5.87;5.27;;;14.50;99.90;;;;;;4941986;29;20639;-80
2022/06/12 02:45:28;;;;;;;6.43;5.13;;;14.50;99.90;;;;;;4939059;29;20715;-80
2022/06/12 02:47:55;;;;;;;5.53;4.97;;;14.50;99.90;;;;;;4949781;29;20674;-80
2022/06/12 02:50:26;;;;;;;5.83;5.10;;;14.50;99.90;;;;;;4936909;29;20234;-80
2022/06/12 02:52:59;;;;;;;5.10;4.60;;;14.40;99.90;;;;;;4933278;29;20205;-81
2022/06/12 02:55:36;;;;;;;5.67;5.17;;;14.40;99.90;;;;;;4930371;29;20227;-77
2022/06/12 02:58:12;;;;;;;7.33;5.60;;;14.40;99.90;;;;;;4924148;28;20700;-81
2022/06/12 03:00:47;;;;;;;5.40;4.60;;;14.40;99.90;;;;;;4954545;29;20212;-81
2022/06/12 03:03:23;;;;;;;5.60;4.50;;;14.40;99.90;;;;;;4945936;28;20261;-77
2022/06/12 03:05:52;;;;;;;6.00;4.93;;;14.40;99.90;;;;;;4946274;28;20227;-78
2022/06/12 03:08:23;;;;;;;5.80;4.77;;;14.30;99.90;;;;;;4952830;28;20205;-78
2022/06/12 03:10:53;;;;;;;5.30;4.80;;;14.20;99.90;;;;;;4941157;28;20274;-78
2022/06/12 03:13:22;;;;;;;7.60;5.00;;;14.20;99.90;;;;;;4946413;28;20221;-78
2022/06/12 03:15:54;;;;;;;5.00;4.13;;;14.20;99.90;;;;;;4942951;28;20308;-78
2022/06/12 03:18:25;;;;;;;7.73;4.80;;;14.20;99.90;;;;;;4956676;29;20620;-78
2022/06/12 03:21:09;;;;;;;5.33;4.60;;;14.10;99.90;;;;;;4952053;29;20592;-77
2022/06/12 03:23:57;;;;;;;5.13;4.33;;;14.10;99.90;;;;;;4954149;29;20265;-78
2022/06/12 03:26:40;;;;;;;7.10;4.83;;;14.10;99.90;;;;;;4956042;29;20210;-77
2022/06/12 03:29:16;;;;;;;5.47;4.57;;;14.00;99.90;;;;;;4954386;29;20289;-77
2022/06/12 03:31:52;;;;;;;5.57;4.60;;;14.00;99.90;;;;;;4938378;29;20203;-78
2022/06/12 03:34:29;;;;;;;4.67;4.17;;;14.00;99.90;;;;;;4954189;28;20305;-77
2022/06/12 03:37:03;;;;;;;5.73;4.80;;;14.00;99.90;;;;;;4956378;29;20202;-77
2022/06/12 03:39:38;;;;;;;4.83;4.37;;;14.10;99.90;;;;;;4953447;29;20698;-77
2022/06/12 03:42:15;;;;;;;4.60;4.20;;;14.10;99.90;;;;;;4955634;29;20632;-77
2022/06/12 03:44:50;;;;;;;5.17;4.67;;;14.10;99.90;;;;;;4953264;29;20219;-77
2022/06/12 03:47:24;;;;;;;4.90;4.30;;;14.00;99.90;;;;;;4951723;29;20636;-77
2022/06/12 03:49:57;;;;;;;4.83;4.40;;;14.00;99.90;;;;;;4955273;29;20190;-77
2022/06/12 03:52:29;;;;;;;6.53;4.60;;;14.10;99.90;;;;;;4954089;29;20202;-77
2022/06/12 03:55:01;;;;;;;4.80;4.30;;;14.10;99.90;;;;;;4955151;28;20249;-77
2022/06/12 04:00:22;;;;;;;5.83;4.90;;;14.10;99.90;;;;;;4936463;29;20305;-77
2022/06/12 04:02:54;;;;;;;4.87;4.27;;;14.20;99.90;;;;;;4954616;29;20202;-79
2022/06/12 04:05:25;;;;;;;5.60;4.20;;;14.20;99.90;;;;;;4953643;28;20231;-79
2022/06/12 04:07:55;;;;;;;4.60;4.20;;;14.30;99.90;;;;;;4932556;29;20269;-78
2022/06/12 04:10:25;;;;;;;4.20;3.80;;;14.40;99.90;;;;;;4954330;29;20245;-80
2022/06/12 04:12:53;;;;;;;5.23;4.57;;;14.50;99.90;;;;;;4953779;29;20199;-80
2022/06/12 04:15:23;;;;;;;5.47;4.33;;;14.50;99.90;;;;;;4939488;29;20284;-79
2022/06/12 04:17:52;;;;;;;4.70;4.10;;;14.60;99.90;;;;;;4952643;29;20663;-79
2022/06/12 04:20:22;;;;;;;3.93;3.53;;;14.70;99.90;;;;;;4953197;29;20230;-83
2022/06/12 04:22:55;;;;;;;4.00;3.70;;;14.80;99.90;;;;;;4939050;29;20206;-81
2022/06/12 04:25:31;;;;;;;3.97;3.63;;;14.80;99.90;;;;;;4939441;29;20226;-81
2022/06/12 04:27:57;;;;;;;4.50;4.10;;;14.90;99.90;;;;;;4937275;29;20644;-82
2022/06/12 04:30:28;;;;;;;4.10;3.80;;;15.10;99.90;;;;;;4948798;29;20469;-82
2022/06/12 04:33:16;;;;;;;4.10;3.70;;;15.20;99.90;;;;;;4936374;29;20266;-81
2022/06/12 04:35:50;;;;;;;4.30;3.90;;;15.40;99.90;;;;;;4936065;29;20277;-81
2022/06/12 04:38:17;;;;;;;4.37;3.97;;;15.60;99.90;;;;;;4948578;29;20202;-82
2022/06/12 04:40:44;;;;;;;3.73;3.43;;;15.80;99.90;;;;;;4937655;29;20225;-81
2022/06/12 04:43:11;;;;;;;3.90;3.50;;;16.00;99.90;;;;;;4945660;28;20292;-81
2022/06/12 04:45:38;;;;;;;4.17;3.37;;;16.10;99.90;;;;;;4957466;28;20637;-82
2022/06/12 04:48:08;;;;;;;3.73;3.33;;;16.20;99.90;;;;;;4954217;29;20317;-82
2022/06/12 04:50:35;;;;;;;4.57;3.70;;;16.70;99.90;;;;;;4957791;29;20201;-80
2022/06/12 04:53:02;;;;;;;7.20;4.20;;;17.30;99.90;;;;;;4939583;29;20259;-80
2022/06/12 04:55:32;;;;;;;5.20;4.70;;;17.40;99.90;;;;;;4944335;28;20293;-80
2022/06/12 04:57:59;;;;;;;5.80;5.33;;;17.50;99.90;;;;;;4944677;29;20841;-80
2022/06/12 05:00:26;;;;;;;7.70;6.23;;;17.60;99.90;;;;;;4959558;29;20290;-80
2022/06/12 05:02:53;;;;;;;6.37;5.20;;;17.50;99.90;;;;;;4957770;29;20247;-81
2022/06/12 05:05:21;;;;;;;6.77;6.20;;;17.60;99.90;;;;;;4956566;28;20225;-81
2022/06/12 05:07:48;;;;;;;7.53;6.90;;;17.70;99.90;;;;;;4957361;29;20265;-80
2022/06/12 05:10:16;;;;;;;7.20;6.70;;;17.80;99.90;;;;;;4948283;29;20656;-80
2022/06/12 05:12:43;;;;;;;7.10;6.50;;;18.00;99.90;;;;;;4944610;29;20628;-80
2022/06/12 05:15:12;;;;;;;5.10;4.60;;;18.10;99.90;;;;;;4934606;29;20227;-79
2022/06/12 05:17:39;;;;;;;4.53;4.13;;;18.40;99.90;;;;;;4953930;29;20258;-80
2022/06/12 05:20:09;;;;;;;5.03;4.53;;;18.60;99.90;;;;;;4944619;29;20292;-80
2022/06/12 05:22:37;;;;;;;4.63;4.20;;;18.80;99.90;;;;;;4951632;29;20575;-79
2022/06/12 05:25:05;;;;;;;7.47;6.83;;;18.80;99.90;;;;;;4937611;29;20231;-80
2022/06/12 05:27:32;;;;;;;4.90;4.50;;;18.80;99.90;;;;;;4938511;29;20585;-79
2022/06/12 05:30:00;;;;;;;5.30;4.80;;;18.90;99.90;;;;;;4927760;29;20296;-80
2022/06/12 05:32:27;;;;;;;8.00;7.40;;;18.90;99.90;;;;;;4946944;29;20208;-79
2022/06/12 05:34:55;;;;;;;6.70;6.20;;;19.00;99.90;;;;;;4937686;29;20234;-81
2022/06/12 05:37:22;;;;;;;7.60;7.00;;;19.30;99.90;;;;;;4944657;29;20206;-81
2022/06/12 05:39:50;;;;;;;7.67;7.00;;;19.70;99.90;;;;;;4942391;29;20233;-80
2022/06/12 05:42:17;;;;;;;6.53;6.03;;;20.20;99.90;;;;;;4943175;29;20280;-81
2022/06/12 05:44:44;;;;;;;7.63;7.00;;;20.90;99.90;;;;;;4957009;28;20222;-81
2022/06/12 05:47:11;;;;;;;7.30;6.70;;;21.60;99.90;;;;;;4951573;29;20276;-82
2022/06/12 05:49:40;;;;;;;7.53;7.03;;;22.10;99.90;;;;;;4937084;29;20213;-79
2022/06/12 05:52:08;;;;;;;7.97;7.47;;;22.60;99.90;;;;;;4951927;29;20687;-81
2022/06/12 05:54:35;;;;;;;5.93;5.43;;;23.20;99.90;;;;;;4945165;28;20372;-80
2022/06/12 05:57:03;;;;;;;4.93;4.53;;;23.60;99.90;;;;;;4944151;28;20221;-81
2022/06/12 05:59:30;;;;;;;5.70;5.30;;;24.00;99.90;;;;;;4941883;29;20217;-81
2022/06/12 06:01:57;;;;;;;7.30;6.77;;;24.40;99.90;;;;;;4966421;28;20210;-79
2022/06/12 06:04:24;;;;;;;7.13;6.40;;;24.60;99.90;;;;;;4945106;28;20297;-81
2022/06/12 06:06:53;;;;;;;5.80;5.30;;;24.90;99.90;;;;;;4955112;28;20230;-81
2022/06/12 06:09:21;;;;;;;5.93;5.50;;;25.20;99.90;;;;;;4952316;29;20608;-81
2022/06/12 06:11:49;;;;;;;4.30;3.53;;;25.50;99.90;;;;;;4946932;29;20663;-79
2022/06/12 06:14:17;;;;;;;3.40;3.10;;;25.70;99.90;;;;;;4946582;29;20238;-78
2022/06/12 06:16:45;;;;;;;5.03;3.90;;;25.90;99.90;;;;;;4952500;28;20625;-78
2022/06/12 06:19:14;;;;;;;5.57;4.60;;;26.10;99.90;;;;;;4935514;29;20579;-79
2022/06/12 06:21:41;;;;;;;6.37;5.77;;;26.20;99.90;;;;;;4951351;29;20227;-79
2022/06/12 06:24:10;;;;;;;6.03;5.50;;;26.20;99.90;;;;;;4953771;29;20229;-78
2022/06/12 06:26:36;;;;;;;7.33;5.70;;;26.30;99.90;;;;;;4947432;29;20224;-78
2022/06/12 06:29:04;;;;;;;5.93;5.47;;;26.40;99.90;;;;;;4951789;29;20265;-80
2022/06/12 06:31:32;;;;;;;7.50;6.83;;;26.40;99.90;;;;;;4955540;29;20616;-77
2022/06/12 06:33:59;;;;;;;7.23;6.63;;;26.50;99.90;;;;;;4938935;28;20226;-78
2022/06/12 06:36:26;;;;;;;7.07;6.47;;;26.60;99.90;;;;;;4942810;29;20206;-79
2022/06/12 06:38:55;;;;;;;6.43;6.03;;;26.60;99.90;;;;;;4952532;29;20199;-78
2022/06/12 06:41:23;;;;;;;6.27;5.77;;;26.70;99.90;;;;;;4955146;29;20214;-78
2022/06/12 06:46:36;;;;;;;7.07;6.47;;;26.90;99.90;;;;;;4955429;29;20194;-79
2022/06/12 06:49:04;;;;;;;6.53;6.13;;;26.70;99.90;;;;;;4949768;29;20196;-79
2022/06/12 06:51:31;;;;;;;7.10;6.50;;;26.90;99.90;;;;;;4937568;29;20648;-78
2022/06/12 06:53:59;;;;;;;7.23;6.70;;;27.30;99.90;;;;;;4939280;28;20680;-78
2022/06/12 06:56:26;;;;;;;6.53;6.10;;;27.60;99.90;;;;;;4955136;29;20216;-78
2022/06/12 06:58:53;;;;;;;7.23;6.53;;;28.10;99.90;;;;;;4954756;29;20671;-78
2022/06/12 07:01:20;;;;;;;6.73;6.20;;;28.10;99.90;;;;;;4954936;29;20218;-78
2022/06/12 07:03:48;;;;;;;6.70;6.20;;;28.10;99.90;;;;;;4942585;29;20694;-78
2022/06/12 07:06:16;;;;;;;7.50;6.90;;;28.20;99.90;;;;;;4951574;28;20227;-78
2022/06/12 07:08:43;;;;;;;7.10;6.50;;;28.20;99.90;;;;;;4948192;29;20206;-79
2022/06/12 07:11:10;;;;;;;6.47;5.97;;;28.10;99.90;;;;;;4937870;29;20228;-79
2022/06/12 07:13:37;;;;;;;6.50;6.00;;;28.30;99.90;;;;;;4941522;28;20687;-79
2022/06/12 07:16:04;;;;;;;6.90;6.10;;;28.60;99.90;;;;;;4955785;28;20273;-79
2022/06/12 07:18:31;;;;;;;6.40;5.90;;;29.00;99.90;;;;;;4954771;29;20553;-80
2022/06/12 07:21:02;;;;;;;6.37;5.87;;;28.90;99.60;;;;;;4954091;29;20253;-80
2022/06/12 07:23:29;;;;;;;6.37;5.97;;;28.80;99.90;;;;;;4949264;28;20198;-79
2022/06/12 07:25:58;;;;;;;6.53;6.13;;;29.00;99.90;;;;;;4960961;28;20265;-80
2022/06/12 07:28:27;;;;;;;5.00;4.67;;;29.00;99.90;;;;;;4943792;29;20203;-81
2022/06/12 07:30:54;;;;;;;6.87;6.47;;;29.10;99.90;;;;;;4952982;29;20199;-77
2022/06/12 07:33:21;;;;;;;6.50;6.00;;;29.10;99.90;;;;;;4950328;29;20203;-79
2022/06/12 07:35:49;;;;;;;6.63;6.13;;;29.30;99.90;;;;;;4941019;28;20226;-78
2022/06/12 07:38:21;;;;;;;6.43;6.03;;;29.30;99.90;;;;;;4968687;28;20257;-81
2022/06/12 07:40:51;;;;;;;6.40;6.00;;;29.40;99.30;;;;;;4954346;29;20552;-80
2022/06/12 07:43:18;;;;;;;6.80;6.30;;;29.20;99.90;;;;;;4937818;29;20257;-81
2022/06/12 07:45:46;;;;;;;7.03;6.47;;;29.10;99.90;;;;;;4939862;29;20226;-81
2022/06/12 07:48:13;;;;;;;7.00;6.40;;;29.20;99.90;;;;;;4943457;29;20203;-81
2022/06/12 07:50:43;;;;;;;6.73;6.27;;;29.00;99.50;;;;;;4930527;29;20262;-81
2022/06/12 07:53:12;;;;;;;6.83;6.33;;;29.00;99.90;;;;;;4934629;29;20289;-81
2022/06/12 07:55:40;;;;;;;7.37;6.77;;;29.40;99.90;;;;;;4933235;29;20230;-81
2022/06/12 07:58:09;;;;;;;6.93;6.40;;;29.70;99.60;;;;;;4937285;29;20206;-81
2022/06/12 08:00:37;;;;;;;7.07;6.50;;;29.70;99.60;;;;;;4953435;29;20739;-81
2022/06/12 08:03:05;;;;;;;6.73;6.33;;;29.90;99.90;;;;;;4939220;29;20233;-81
2022/06/12 08:05:33;;;;;;;6.97;6.47;;;29.80;99.90;;;;;;4952044;29;20703;-81
2022/06/12 08:08:00;;;;;;;5.73;5.30;;;29.90;99.90;;;;;;4954266;29;20202;-81
2022/06/12 08:10:27;;;;;;;5.83;5.43;;;30.20;99.90;;;;;;4951334;29;20199;-81
2022/06/12 08:12:56;;;;;;;5.60;5.10;;;30.20;99.60;;;;;;4951713;29;20211;-81
2022/06/12 08:15:28;;;;;;;5.50;5.10;;;29.80;99.90;;;;;;4936486;29;20244;-81
2022/06/12 08:17:56;;;;;;;5.60;5.20;;;29.80;99.90;;;;;;4950039;28;20203;-81
2022/06/12 08:20:30;;;;;;;6.10;5.53;;;30.10;99.70;;;;;;4940556;29;20206;-81
2022/06/12 08:23:02;;;;;;;6.30;5.90;;;30.60;99.20;;;;;;4939001;29;20317;-82
2022/06/12 08:25:31;;;;;;;6.60;6.10;;;30.40;97.40;;;;;;4951855;29;20579;-82
2022/06/12 08:28:00;;;;;;;5.33;4.80;;;30.50;98.50;;;;;;4937111;29;20217;-81
2022/06/12 08:30:27;;;;;;;6.10;5.70;;;30.60;96.60;;;;;;4930223;29;20234;-81
2022/06/12 08:32:56;;;;;;;6.33;5.83;;;30.80;97.60;;;;;;4938494;29;20261;-81
2022/06/12 08:35:27;;;;;;;6.27;5.80;;;30.80;96.50;;;;;;4953607;28;20233;-81
2022/06/12 08:37:55;;;;;;;6.10;5.60;;;30.30;95.70;;;;;;4938215;29;20191;-81
2022/06/12 08:40:30;;;;;;;6.67;6.17;;;30.40;96.90;;;;;;4938150;29;20199;-81
2022/06/12 08:43:08;;;;;;;6.70;6.20;;;30.80;96.80;;;;;;4953915;29;20268;-81
2022/06/12 08:45:42;;;;;;;6.90;6.50;;;31.00;96.90;;;;;;4945648;29;20323;-81
2022/06/12 08:48:17;;;;;;;6.93;6.43;;;31.30;97.10;;;;;;4947524;29;20198;-81
2022/06/12 08:50:49;;;;;;;6.80;6.30;;;31.60;96.40;;;;;;4950825;29;20193;-81
2022/06/12 08:53:23;;;;;;;6.90;6.40;;;31.40;96.40;;;;;;4934123;29;20240;-81
2022/06/12 08:55:56;;;;;;;7.53;6.90;;;31.00;95.80;;;;;;4938746;28;20316;-81
2022/06/12 08:58:30;;;;;;;6.93;6.50;;;30.40;96.30;;;;;;4953911;29;20198;-80
2022/06/12 09:00:59;;;;;;;7.13;6.63;;;29.90;96.40;;;;;;4936434;29;20214;-81
2022/06/12 09:03:29;;;;;;;5.37;4.97;;;30.00;96.80;;;;;;4940281;29;20233;-81
2022/06/12 09:06:09;;;;;;;5.30;5.00;;;30.60;95.80;;;;;;4938318;29;20230;-78
2022/06/12 09:08:43;;;;;;;5.53;5.10;;;30.70;96.20;;;;;;4966364;28;20682;-81
2022/06/12 09:11:16;;;;;;;5.70;4.70;;;30.90;95.20;;;;;;4948359;28;20199;-80
2022/06/12 09:13:54;;;;;;;5.83;5.33;;;31.10;96.80;;;;;;4962347;28;20210;-81
2022/06/12 09:16:28;;;;;;;6.70;6.00;;;30.80;95.20;;;;;;4954407;28;20624;-81
2022/06/12 09:19:02;;;;;;;6.77;6.27;;;31.00;95.60;;;;;;4935363;29;20211;-81
2022/06/12 09:21:36;;;;;;;6.60;6.10;;;31.20;96.70;;;;;;4937184;29;20306;-80
2022/06/12 09:24:11;;;;;;;7.27;6.70;;;31.50;96.30;;;;;;4963596;28;20286;-79
2022/06/12 09:26:51;;;;;;;6.07;5.47;;;31.50;93.80;;;;;;4953847;28;20198;-78
2022/06/12 09:29:37;;;;;;;5.90;5.40;;;31.10;92.50;;;;;;4954614;28;20205;-78
2022/06/12 09:32:13;;;;;;;5.93;4.90;;;31.00;94.80;;;;;;4940943;29;20210;-79
2022/06/12 09:34:45;;;;;;;5.10;4.70;;;31.50;94.30;;;;;;4948877;29;20229;-79
2022/06/12 09:40:25;;;;;;;6.40;5.90;;;31.60;94.50;;;;;;4952844;29;20615;-79
2022/06/12 09:42:58;;;;;;;5.30;4.90;;;32.00;94.90;;;;;;4939171;29;20268;-79
2022/06/12 09:45:33;;;;;;;5.40;4.90;;;32.30;92.80;;;;;;4955603;29;20230;-79
2022/06/12 09:48:11;;;;;;;5.17;4.67;;;32.40;93.70;;;;;;4938941;29;20202;-79
2022/06/12 09:50:46;;;;;;;7.00;5.27;;;32.00;91.90;;;;;;4939498;29;20651;-78
2022/06/12 09:53:35;;;;;;;5.07;4.60;;;31.80;94.40;;;;;;4952407;28;20676;-78
2022/06/12 09:56:05;;;;;;;4.93;4.53;;;31.20;92.60;;;;;;4953379;29;20198;-79
2022/06/12 09:58:37;;;;;;;5.07;4.60;;;31.00;93.10;;;;;;4934671;29;20207;-78
2022/06/12 10:01:13;;;;;;;5.20;4.80;;;31.10;93.40;;;;;;4938399;29;20278;-79
2022/06/12 10:03:45;;;;;;;5.07;4.67;;;31.50;93.00;;;;;;4960444;29;20221;-77
2022/06/12 10:06:22;;;;;;;4.90;4.60;;;31.70;94.30;;;;;;4953720;28;20269;-79
2022/06/12 10:08:56;;;;;;;5.00;4.60;;;31.80;92.80;;;;;;4944372;29;20206;-78
2022/06/12 10:11:27;;;;;;;4.90;4.50;;;31.80;92.50;;;;;;4945039;29;20202;-78
2022/06/12 10:13:57;;;;;;;5.53;4.90;;;31.90;92.10;;;;;;4938800;29;20218;-78
2022/06/12 10:16:31;;;;;;;5.77;5.27;;;32.10;90.80;;;;;;4952031;28;20198;-78
2022/06/12 10:19:04;;;;;;;5.70;5.20;;;31.80;90.90;;;;;;4935385;29;20202;-78
2022/06/12 10:21:34;;;;;;;5.33;4.97;;;32.00;91.80;;;;;;4950880;29;20190;-79
2022/06/12 10:24:02;;;;;;;6.40;5.90;;;32.30;92.00;;;;;;4956093;29;20227;-79
2022/06/12 10:26:32;;;;;;;6.37;5.97;;;32.40;90.30;;;;;;4943694;29;20231;-79
2022/06/12 10:29:03;;;;;;;5.30;4.80;;;32.20;90.10;;;;;;4941927;29;20210;-78
2022/06/12 10:31:34;;;;;;;6.40;5.80;;;32.10;90.80;;;;;;4953993;29;20643;-78
2022/06/12 10:34:16;;;;;;;5.50;5.10;;;32.10;91.30;;;;;;4941487;29;20226;-78
2022/06/12 10:36:44;;;;;;;4.83;4.40;;;32.10;90.90;;;;;;4954469;29;20226;-78
2022/06/12 10:39:14;;;;;;;5.13;4.63;;;32.00;88.40;;;;;;4950075;29;20206;-78
2022/06/12 10:41:52;;;;;;;5.20;4.80;;;31.60;88.40;;;;;;4939152;29;20261;-78
2022/06/12 10:44:35;;;;;;;6.17;5.73;;;31.20;90.70;;;;;;4929752;29;20226;-78
2022/06/12 10:47:22;;;;;;;4.50;4.20;;;31.40;90.90;;;;;;4955521;29;20230;-78
2022/06/12 10:50:01;;;;;;;4.43;4.13;;;31.60;90.90;;;;;;4938271;29;20205;-77
2022/06/12 10:52:28;;;;;;;5.10;4.60;;;31.60;91.30;;;;;;4939829;29;20211;-78
2022/06/12 10:54:55;;;;;;;4.73;4.43;;;31.60;90.50;;;;;;4938074;29;20227;-78
2022/06/12 10:57:42;;;;;;;5.77;5.43;;;31.60;89.20;;;;;;4939590;29;20222;-77
2022/06/12 11:00:15;;;;;;;4.63;4.27;;;31.40;88.50;;;;;;4935189;29;20258;-79
2022/06/12 11:03:07;;;;;;;4.53;4.23;;;31.10;90.20;;;;;;4951620;29;20457;-81
2022/06/12 11:05:47;;;;;;;4.40;4.00;;;31.20;90.40;;;;;;4935792;29;20657;-79
2022/06/12 11:08:46;;;;;;;5.13;4.23;;;31.30;90.40;;;;;;4929685;29;20210;-79
2022/06/12 11:11:21;;;;;;;5.10;4.70;;;31.20;88.60;;;;;;4958932;28;20210;-78
2022/06/12 11:14:03;;;;;;;4.43;4.10;;;31.00;89.60;;;;;;4959099;28;20233;-78
2022/06/12 11:16:46;;;;;;;4.53;4.20;;;31.00;90.70;;;;;;4936877;29;20854;-77
2022/06/12 11:19:26;;;;;;;5.70;5.30;;;31.10;90.10;;;;;;4951076;29;20214;-78
2022/06/12 11:22:04;;;;;;;3.37;3.13;;;31.10;90.00;;;;;;4945048;29;20306;-78
2022/06/12 11:24:38;;;;;;;2.87;2.30;;;30.80;88.30;;;;;;4951202;29;20222;-78
2022/06/12 11:27:30;;;;;;;2.23;2.03;;;30.80;89.10;;;;;;4944387;29;20201;-78
2022/06/12 11:30:13;;;;;;;2.10;2.00;;;30.80;90.00;;;;;;4955206;29;20206;-78
2022/06/12 11:32:57;;;;;;;3.13;2.40;;;31.00;89.60;;;;;;4951314;29;20257;-80
2022/06/12 11:35:46;;;;;;;3.20;2.30;;;31.10;89.00;;;;;;4947240;29;20223;-81
2022/06/12 11:38:45;;;;;;;2.20;2.10;;;31.00;88.00;;;;;;4950550;29;20214;-80
2022/06/12 11:41:22;;;;;;;5.00;4.60;;;31.00;89.50;;;;;;4941514;29;20199;-79
2022/06/12 11:44:01;;;;;;;4.07;3.30;;;30.90;88.30;;;;;;4952650;28;20210;-80
2022/06/12 11:46:34;;;;;;;3.00;2.47;;;30.90;90.30;;;;;;4946546;29;20261;-81
2022/06/12 11:49:18;;;;;;;2.60;2.40;;;30.80;88.80;;;;;;4941534;29;20258;-79
2022/06/12 11:52:01;;;;;;;5.87;5.37;;;30.70;89.10;;;;;;4951851;28;20202;-81
2022/06/12 11:54:51;;;;;;;2.90;2.50;;;30.60;85.90;;;;;;4954849;28;20219;-78
2022/06/12 11:57:22;;;;;;;3.27;2.40;;;30.40;88.30;;;;;;4941871;29;20218;-79
2022/06/12 12:00:01;;;;;;;2.60;2.40;;;30.40;88.90;;;;;;4953105;28;20222;-80
2022/06/12 12:02:56;;;;;;;2.43;2.00;;;30.40;88.60;;;;;;4948362;28;20238;-79
2022/06/12 12:05:46;;;;;;;5.33;4.97;;;30.10;89.30;;;;;;4934942;29;20314;-79
2022/06/12 12:08:48;;;;;;;5.40;5.00;;;30.10;89.60;;;;;;4935849;29;20210;-80
2022/06/12 12:11:20;;;;;;;2.67;2.47;;;30.20;88.80;;;;;;4950211;29;20290;-78
2022/06/12 12:13:52;;;;;;;3.07;2.53;;;30.20;90.30;;;;;;4953201;28;20195;-79
2022/06/12 12:16:28;;;;;;;3.40;3.10;;;30.30;89.20;;;;;;4962382;28;20202;-79
2022/06/12 12:18:59;;;;;;;4.90;4.60;;;30.30;89.20;;;;;;4953822;29;20745;-80
2022/06/12 12:21:34;;;;;;;5.70;5.20;;;30.30;89.40;;;;;;4942643;29;20226;-80
2022/06/12 12:24:14;;;;;;;5.60;5.20;;;30.40;89.60;;;;;;4935269;29;20225;-79
2022/06/12 12:26:57;;;;;;;4.83;4.43;;;30.40;89.20;;;;;;4947256;29;20265;-79
2022/06/12 12:29:29;;;;;;;2.90;2.60;;;30.40;89.70;;;;;;4952750;29;20642;-79
2022/06/12 12:31:57;;;;;;;5.70;5.30;;;30.50;88.90;;;;;;4947411;29;20277;-80
2022/06/12 12:34:28;;;;;;;5.30;4.90;;;30.60;88.40;;;;;;4933393;29;20265;-79
2022/06/12 12:43:09;;;;;;;3.47;2.40;;;30.60;89.60;;;;;;4909822;29;20216;-80
2022/06/12 12:45:39;;;;;;;2.57;2.20;;;30.40;88.20;;;;;;4936210;28;20607;-79
2022/06/12 12:48:12;;;;;;;2.27;2.07;;;30.40;90.10;;;;;;4952548;28;20203;-79
2022/06/12 12:50:46;;;;;;;2.60;2.40;;;30.50;89.40;;;;;;4953474;29;20202;-79
2022/06/12 12:53:27;;;;;;;5.90;5.30;;;30.50;87.80;;;;;;4948468;29;20221;-78
2022/06/12 12:56:04;;;;;;;5.33;5.03;;;30.30;87.60;;;;;;4946859;29;20557;-79
2022/06/12 12:58:35;;;;;;;5.40;5.10;;;30.10;89.30;;;;;;4934879;29;20202;-80
2022/06/12 13:01:07;;;;;;;5.10;4.80;;;30.30;90.30;;;;;;4949115;28;20211;-79
2022/06/12 13:03:41;;;;;;;5.40;5.00;;;30.40;90.60;;;;;;4950428;28;20586;-79
2022/06/12 13:06:34;;;;;;;5.20;4.90;;;30.40;90.20;;;;;;4953828;29;20564;-80
2022/06/12 13:09:34;;;;;;;5.07;4.77;;;30.50;87.50;;;;;;4955271;28;20206;-78
2022/06/12 13:12:22;;;;;;;5.40;5.00;;;30.50;87.80;;;;;;4955494;28;20211;-78
2022/06/12 13:15:16;;;;;;;5.33;5.03;;;30.40;87.80;;;;;;4935966;28;20229;-79
2022/06/12 13:17:49;;;;;;;5.30;4.80;;;30.60;90.30;;;;;;4955876;29;20205;-79
2022/06/12 13:20:46;;;;;;;5.30;4.80;;;30.50;88.40;;;;;;4945977;29;20624;-80
2022/06/12 13:23:25;;;;;;;5.63;5.23;;;30.50;88.90;;;;;;4926747;29;20230;-79
2022/06/12 13:25:54;;;;;;;6.20;5.60;;;30.60;90.00;;;;;;4937270;29;20277;-79
2022/06/12 13:28:25;;;;;;;5.73;5.23;;;30.40;88.80;;;;;;4957128;29;20289;-79
2022/06/12 13:30:54;;;;;;;5.33;4.93;;;30.30;90.60;;;;;;4955903;29;20301;-79
2022/06/12 13:33:23;;;;;;;5.57;5.17;;;30.30;89.80;;;;;;4955586;29;20206;-79
2022/06/12 13:35:53;;;;;;;5.40;5.00;;;30.10;90.70;;;;;;4944688;29;20229;-78
2022/06/12 13:38:23;;;;;;;5.43;5.03;;;30.00;89.30;;;;;;4955641;29;20266;-78